<?xml version="1.0" encoding="UTF-8" standalone="no" ?>
<gpx xmlns="http://www.topografix.com/GPX/1/1" xmlns:xsi="http://www.w3.org/2001/XMLSchema-instance" xsi:schemaLocation="http://www.topografix.com/GPX/1/1 http://www.topografix.com/GPX/1/1/gpx.xsd" version="1.1" creator="VisuGPX - https://www.visugpx.com">
  <metadata>
    <name>Métropolitaine citadelle </name>
    <desc><![CDATA[Visite cœur et santé ]]></desc>
  </metadata>
  <trk>
    <name><![CDATA[Métropolitaine citadelle _1]]></name>
    <trkseg>
      <trkpt lat="49.90511" lon="2.29422">
        <ele>45</ele>
        <time>2024-05-11T12:07:58Z</time>
      </trkpt>
      <trkpt lat="49.90511" lon="2.29422">
        <ele>45</ele>
        <time>2024-05-11T12:07:59Z</time>
      </trkpt>
      <trkpt lat="49.90511" lon="2.29422">
        <ele>45</ele>
        <time>2024-05-11T12:08:00Z</time>
      </trkpt>
      <trkpt lat="49.90511" lon="2.29422">
        <ele>45</ele>
        <time>2024-05-11T12:08:01Z</time>
      </trkpt>
      <trkpt lat="49.90511" lon="2.29422">
        <ele>45</ele>
        <time>2024-05-11T12:08:02Z</time>
      </trkpt>
      <trkpt lat="49.90508" lon="2.29422">
        <ele>45.1</ele>
        <time>2024-05-11T12:08:03Z</time>
      </trkpt>
      <trkpt lat="49.90505" lon="2.29423">
        <ele>45.2</ele>
        <time>2024-05-11T12:08:04Z</time>
      </trkpt>
      <trkpt lat="49.90504" lon="2.29423">
        <ele>45.2</ele>
        <time>2024-05-11T12:08:05Z</time>
      </trkpt>
      <trkpt lat="49.90503" lon="2.29424">
        <ele>45.3</ele>
        <time>2024-05-11T12:08:06Z</time>
      </trkpt>
      <trkpt lat="49.90501" lon="2.29426">
        <ele>45.3</ele>
        <time>2024-05-11T12:08:07Z</time>
      </trkpt>
      <trkpt lat="49.90499" lon="2.29429">
        <ele>45.4</ele>
        <time>2024-05-11T12:08:08Z</time>
      </trkpt>
      <trkpt lat="49.90498" lon="2.29431">
        <ele>45.4</ele>
        <time>2024-05-11T12:08:09Z</time>
      </trkpt>
      <trkpt lat="49.90498" lon="2.29432">
        <ele>45.5</ele>
        <time>2024-05-11T12:08:10Z</time>
      </trkpt>
      <trkpt lat="49.90498" lon="2.29433">
        <ele>45.5</ele>
        <time>2024-05-11T12:08:11Z</time>
      </trkpt>
      <trkpt lat="49.90499" lon="2.29434">
        <ele>45.5</ele>
        <time>2024-05-11T12:08:12Z</time>
      </trkpt>
      <trkpt lat="49.90499" lon="2.29436">
        <ele>45.5</ele>
        <time>2024-05-11T12:08:13Z</time>
      </trkpt>
      <trkpt lat="49.905" lon="2.29437">
        <ele>45.6</ele>
        <time>2024-05-11T12:08:14Z</time>
      </trkpt>
      <trkpt lat="49.90501" lon="2.29439">
        <ele>45.6</ele>
        <time>2024-05-11T12:08:15Z</time>
      </trkpt>
      <trkpt lat="49.90502" lon="2.2944">
        <ele>45.7</ele>
        <time>2024-05-11T12:08:16Z</time>
      </trkpt>
      <trkpt lat="49.90504" lon="2.29441">
        <ele>45.7</ele>
        <time>2024-05-11T12:08:17Z</time>
      </trkpt>
      <trkpt lat="49.90505" lon="2.29442">
        <ele>45.8</ele>
        <time>2024-05-11T12:08:18Z</time>
      </trkpt>
      <trkpt lat="49.90506" lon="2.29442">
        <ele>45.8</ele>
        <time>2024-05-11T12:08:19Z</time>
      </trkpt>
      <trkpt lat="49.90507" lon="2.29444">
        <ele>45.8</ele>
        <time>2024-05-11T12:08:20Z</time>
      </trkpt>
      <trkpt lat="49.90507" lon="2.29445">
        <ele>45.9</ele>
        <time>2024-05-11T12:08:21Z</time>
      </trkpt>
      <trkpt lat="49.90508" lon="2.29446">
        <ele>45.9</ele>
        <time>2024-05-11T12:08:22Z</time>
      </trkpt>
      <trkpt lat="49.90509" lon="2.29446">
        <ele>45.9</ele>
        <time>2024-05-11T12:08:23Z</time>
      </trkpt>
      <trkpt lat="49.9051" lon="2.29447">
        <ele>45.9</ele>
        <time>2024-05-11T12:08:24Z</time>
      </trkpt>
      <trkpt lat="49.9051" lon="2.29448">
        <ele>46</ele>
        <time>2024-05-11T12:08:25Z</time>
      </trkpt>
      <trkpt lat="49.90511" lon="2.29449">
        <ele>46</ele>
        <time>2024-05-11T12:08:26Z</time>
      </trkpt>
      <trkpt lat="49.90512" lon="2.2945">
        <ele>46</ele>
        <time>2024-05-11T12:08:27Z</time>
      </trkpt>
      <trkpt lat="49.90512" lon="2.2945">
        <ele>46</ele>
        <time>2024-05-11T12:08:28Z</time>
      </trkpt>
      <trkpt lat="49.90513" lon="2.2945">
        <ele>46</ele>
        <time>2024-05-11T12:08:29Z</time>
      </trkpt>
      <trkpt lat="49.90513" lon="2.29451">
        <ele>46.1</ele>
        <time>2024-05-11T12:08:30Z</time>
      </trkpt>
      <trkpt lat="49.90514" lon="2.29452">
        <ele>46.1</ele>
        <time>2024-05-11T12:08:31Z</time>
      </trkpt>
      <trkpt lat="49.90514" lon="2.29453">
        <ele>46.1</ele>
        <time>2024-05-11T12:08:32Z</time>
      </trkpt>
      <trkpt lat="49.90515" lon="2.29454">
        <ele>46.1</ele>
        <time>2024-05-11T12:08:33Z</time>
      </trkpt>
      <trkpt lat="49.90516" lon="2.29456">
        <ele>46.2</ele>
        <time>2024-05-11T12:08:34Z</time>
      </trkpt>
      <trkpt lat="49.90518" lon="2.29458">
        <ele>46.2</ele>
        <time>2024-05-11T12:08:35Z</time>
      </trkpt>
      <trkpt lat="49.90518" lon="2.29459">
        <ele>46.3</ele>
        <time>2024-05-11T12:08:36Z</time>
      </trkpt>
      <trkpt lat="49.90519" lon="2.2946">
        <ele>46.3</ele>
        <time>2024-05-11T12:08:37Z</time>
      </trkpt>
      <trkpt lat="49.9052" lon="2.29461">
        <ele>46.3</ele>
        <time>2024-05-11T12:08:38Z</time>
      </trkpt>
      <trkpt lat="49.90521" lon="2.29462">
        <ele>46.3</ele>
        <time>2024-05-11T12:08:39Z</time>
      </trkpt>
      <trkpt lat="49.90521" lon="2.29463">
        <ele>46.4</ele>
        <time>2024-05-11T12:08:40Z</time>
      </trkpt>
      <trkpt lat="49.90522" lon="2.29464">
        <ele>46.4</ele>
        <time>2024-05-11T12:08:41Z</time>
      </trkpt>
      <trkpt lat="49.90523" lon="2.29465">
        <ele>46.4</ele>
        <time>2024-05-11T12:08:42Z</time>
      </trkpt>
      <trkpt lat="49.90523" lon="2.29466">
        <ele>46.4</ele>
        <time>2024-05-11T12:08:43Z</time>
      </trkpt>
      <trkpt lat="49.90524" lon="2.29467">
        <ele>46.4</ele>
        <time>2024-05-11T12:08:44Z</time>
      </trkpt>
      <trkpt lat="49.90525" lon="2.29469">
        <ele>46.5</ele>
        <time>2024-05-11T12:08:45Z</time>
      </trkpt>
      <trkpt lat="49.90526" lon="2.29469">
        <ele>46.5</ele>
        <time>2024-05-11T12:08:46Z</time>
      </trkpt>
      <trkpt lat="49.90527" lon="2.29472">
        <ele>46.5</ele>
        <time>2024-05-11T12:08:47Z</time>
      </trkpt>
      <trkpt lat="49.90528" lon="2.29473">
        <ele>46.5</ele>
        <time>2024-05-11T12:08:48Z</time>
      </trkpt>
      <trkpt lat="49.90528" lon="2.29474">
        <ele>46.6</ele>
        <time>2024-05-11T12:08:49Z</time>
      </trkpt>
      <trkpt lat="49.90529" lon="2.29475">
        <ele>46.6</ele>
        <time>2024-05-11T12:08:50Z</time>
      </trkpt>
      <trkpt lat="49.9053" lon="2.29476">
        <ele>46.6</ele>
        <time>2024-05-11T12:08:51Z</time>
      </trkpt>
      <trkpt lat="49.90531" lon="2.29477">
        <ele>46.6</ele>
        <time>2024-05-11T12:08:52Z</time>
      </trkpt>
      <trkpt lat="49.90531" lon="2.29478">
        <ele>46.6</ele>
        <time>2024-05-11T12:08:53Z</time>
      </trkpt>
      <trkpt lat="49.90532" lon="2.2948">
        <ele>46.7</ele>
        <time>2024-05-11T12:08:54Z</time>
      </trkpt>
      <trkpt lat="49.90533" lon="2.29481">
        <ele>46.7</ele>
        <time>2024-05-11T12:08:55Z</time>
      </trkpt>
      <trkpt lat="49.90533" lon="2.29482">
        <ele>46.7</ele>
        <time>2024-05-11T12:08:56Z</time>
      </trkpt>
      <trkpt lat="49.90534" lon="2.29484">
        <ele>46.7</ele>
        <time>2024-05-11T12:08:57Z</time>
      </trkpt>
      <trkpt lat="49.90534" lon="2.29485">
        <ele>46.7</ele>
        <time>2024-05-11T12:08:58Z</time>
      </trkpt>
      <trkpt lat="49.90534" lon="2.29486">
        <ele>46.7</ele>
        <time>2024-05-11T12:08:59Z</time>
      </trkpt>
      <trkpt lat="49.90535" lon="2.29488">
        <ele>46.7</ele>
        <time>2024-05-11T12:09:00Z</time>
      </trkpt>
      <trkpt lat="49.90535" lon="2.29489">
        <ele>46.7</ele>
        <time>2024-05-11T12:09:01Z</time>
      </trkpt>
      <trkpt lat="49.90535" lon="2.2949">
        <ele>46.7</ele>
        <time>2024-05-11T12:09:02Z</time>
      </trkpt>
      <trkpt lat="49.90535" lon="2.29492">
        <ele>46.8</ele>
        <time>2024-05-11T12:09:03Z</time>
      </trkpt>
      <trkpt lat="49.90535" lon="2.29493">
        <ele>46.8</ele>
        <time>2024-05-11T12:09:04Z</time>
      </trkpt>
      <trkpt lat="49.90535" lon="2.29495">
        <ele>46.8</ele>
        <time>2024-05-11T12:09:05Z</time>
      </trkpt>
      <trkpt lat="49.90536" lon="2.29496">
        <ele>46.8</ele>
        <time>2024-05-11T12:09:07Z</time>
      </trkpt>
      <trkpt lat="49.90536" lon="2.29498">
        <ele>46.8</ele>
        <time>2024-05-11T12:09:08Z</time>
      </trkpt>
      <trkpt lat="49.90536" lon="2.295">
        <ele>46.8</ele>
        <time>2024-05-11T12:09:09Z</time>
      </trkpt>
      <trkpt lat="49.90536" lon="2.29502">
        <ele>46.8</ele>
        <time>2024-05-11T12:09:10Z</time>
      </trkpt>
      <trkpt lat="49.90537" lon="2.29503">
        <ele>46.8</ele>
        <time>2024-05-11T12:09:11Z</time>
      </trkpt>
      <trkpt lat="49.90537" lon="2.29505">
        <ele>46.8</ele>
        <time>2024-05-11T12:09:12Z</time>
      </trkpt>
      <trkpt lat="49.90537" lon="2.29507">
        <ele>46.8</ele>
        <time>2024-05-11T12:09:14Z</time>
      </trkpt>
      <trkpt lat="49.90537" lon="2.29508">
        <ele>46.9</ele>
        <time>2024-05-11T12:09:15Z</time>
      </trkpt>
      <trkpt lat="49.90388" lon="2.3003">
        <ele>43.4</ele>
        <time>2024-05-11T12:36:58Z</time>
      </trkpt>
      <trkpt lat="49.90388" lon="2.30032">
        <ele>43.3</ele>
        <time>2024-05-11T12:36:59Z</time>
      </trkpt>
      <trkpt lat="49.90388" lon="2.30033">
        <ele>43.3</ele>
        <time>2024-05-11T12:37:00Z</time>
      </trkpt>
      <trkpt lat="49.90388" lon="2.30032">
        <ele>43.3</ele>
        <time>2024-05-11T12:37:02Z</time>
      </trkpt>
      <trkpt lat="49.90387" lon="2.30031">
        <ele>43.3</ele>
        <time>2024-05-11T12:37:03Z</time>
      </trkpt>
      <trkpt lat="49.90387" lon="2.3003">
        <ele>43.4</ele>
        <time>2024-05-11T12:37:04Z</time>
      </trkpt>
      <trkpt lat="49.90387" lon="2.3003">
        <ele>43.3</ele>
        <time>2024-05-11T12:37:05Z</time>
      </trkpt>
      <trkpt lat="49.90387" lon="2.3003">
        <ele>43.3</ele>
        <time>2024-05-11T12:37:06Z</time>
      </trkpt>
      <trkpt lat="49.90387" lon="2.3003">
        <ele>43.3</ele>
        <time>2024-05-11T12:37:07Z</time>
      </trkpt>
      <trkpt lat="49.90387" lon="2.3003">
        <ele>43.3</ele>
        <time>2024-05-11T12:37:08Z</time>
      </trkpt>
      <trkpt lat="49.90387" lon="2.3003">
        <ele>43.3</ele>
        <time>2024-05-11T12:37:09Z</time>
      </trkpt>
      <trkpt lat="49.90387" lon="2.3003">
        <ele>43.3</ele>
        <time>2024-05-11T12:37:10Z</time>
      </trkpt>
      <trkpt lat="49.90387" lon="2.3003">
        <ele>43.3</ele>
        <time>2024-05-11T12:37:11Z</time>
      </trkpt>
      <trkpt lat="49.90387" lon="2.3003">
        <ele>43.3</ele>
        <time>2024-05-11T12:37:12Z</time>
      </trkpt>
      <trkpt lat="49.90387" lon="2.3003">
        <ele>43.3</ele>
        <time>2024-05-11T12:37:13Z</time>
      </trkpt>
      <trkpt lat="49.90387" lon="2.3003">
        <ele>43.3</ele>
        <time>2024-05-11T12:37:14Z</time>
      </trkpt>
      <trkpt lat="49.90387" lon="2.3003">
        <ele>43.3</ele>
        <time>2024-05-11T12:37:15Z</time>
      </trkpt>
      <trkpt lat="49.90387" lon="2.3003">
        <ele>43.3</ele>
        <time>2024-05-11T12:37:16Z</time>
      </trkpt>
      <trkpt lat="49.90387" lon="2.3003">
        <ele>43.3</ele>
        <time>2024-05-11T12:37:17Z</time>
      </trkpt>
      <trkpt lat="49.90387" lon="2.3003">
        <ele>43.3</ele>
        <time>2024-05-11T12:37:18Z</time>
      </trkpt>
      <trkpt lat="49.90387" lon="2.3003">
        <ele>43.3</ele>
        <time>2024-05-11T12:37:19Z</time>
      </trkpt>
      <trkpt lat="49.90387" lon="2.3003">
        <ele>43.3</ele>
        <time>2024-05-11T12:37:20Z</time>
      </trkpt>
      <trkpt lat="49.90387" lon="2.3003">
        <ele>43.3</ele>
        <time>2024-05-11T12:37:21Z</time>
      </trkpt>
      <trkpt lat="49.90387" lon="2.3003">
        <ele>43.3</ele>
        <time>2024-05-11T12:37:22Z</time>
      </trkpt>
      <trkpt lat="49.90387" lon="2.3003">
        <ele>43.3</ele>
        <time>2024-05-11T12:37:23Z</time>
      </trkpt>
      <trkpt lat="49.90387" lon="2.3003">
        <ele>43.3</ele>
        <time>2024-05-11T12:37:24Z</time>
      </trkpt>
      <trkpt lat="49.90387" lon="2.3003">
        <ele>43.2</ele>
        <time>2024-05-11T12:37:25Z</time>
      </trkpt>
      <trkpt lat="49.90388" lon="2.30028">
        <ele>43.2</ele>
        <time>2024-05-11T12:37:26Z</time>
      </trkpt>
      <trkpt lat="49.90388" lon="2.30028">
        <ele>43.2</ele>
        <time>2024-05-11T12:37:27Z</time>
      </trkpt>
      <trkpt lat="49.90388" lon="2.30027">
        <ele>43.2</ele>
        <time>2024-05-11T12:37:28Z</time>
      </trkpt>
      <trkpt lat="49.90388" lon="2.30025">
        <ele>43.3</ele>
        <time>2024-05-11T12:37:29Z</time>
      </trkpt>
      <trkpt lat="49.90388" lon="2.30025">
        <ele>43.3</ele>
        <time>2024-05-11T12:37:30Z</time>
      </trkpt>
      <trkpt lat="49.90388" lon="2.30024">
        <ele>43.2</ele>
        <time>2024-05-11T12:37:31Z</time>
      </trkpt>
      <trkpt lat="49.90389" lon="2.30022">
        <ele>43.2</ele>
        <time>2024-05-11T12:37:32Z</time>
      </trkpt>
      <trkpt lat="49.90389" lon="2.30021">
        <ele>43.3</ele>
        <time>2024-05-11T12:37:33Z</time>
      </trkpt>
      <trkpt lat="49.90389" lon="2.30021">
        <ele>43.2</ele>
        <time>2024-05-11T12:37:34Z</time>
      </trkpt>
      <trkpt lat="49.90389" lon="2.30021">
        <ele>43.2</ele>
        <time>2024-05-11T12:37:35Z</time>
      </trkpt>
      <trkpt lat="49.90389" lon="2.30021">
        <ele>43.2</ele>
        <time>2024-05-11T12:37:36Z</time>
      </trkpt>
      <trkpt lat="49.90389" lon="2.30021">
        <ele>43.2</ele>
        <time>2024-05-11T12:37:37Z</time>
      </trkpt>
      <trkpt lat="49.90389" lon="2.30021">
        <ele>43.2</ele>
        <time>2024-05-11T12:37:38Z</time>
      </trkpt>
      <trkpt lat="49.90389" lon="2.30021">
        <ele>43.2</ele>
        <time>2024-05-11T12:37:39Z</time>
      </trkpt>
      <trkpt lat="49.90389" lon="2.30021">
        <ele>43.2</ele>
        <time>2024-05-11T12:37:40Z</time>
      </trkpt>
      <trkpt lat="49.90389" lon="2.30021">
        <ele>43.2</ele>
        <time>2024-05-11T12:37:41Z</time>
      </trkpt>
      <trkpt lat="49.90389" lon="2.30021">
        <ele>43.2</ele>
        <time>2024-05-11T12:37:42Z</time>
      </trkpt>
      <trkpt lat="49.90389" lon="2.30021">
        <ele>43.2</ele>
        <time>2024-05-11T12:37:43Z</time>
      </trkpt>
      <trkpt lat="49.90389" lon="2.30021">
        <ele>43.2</ele>
        <time>2024-05-11T12:37:44Z</time>
      </trkpt>
      <trkpt lat="49.90389" lon="2.30021">
        <ele>43.2</ele>
        <time>2024-05-11T12:37:45Z</time>
      </trkpt>
      <trkpt lat="49.90389" lon="2.30021">
        <ele>43.2</ele>
        <time>2024-05-11T12:37:46Z</time>
      </trkpt>
      <trkpt lat="49.90389" lon="2.3002">
        <ele>43.2</ele>
        <time>2024-05-11T12:37:47Z</time>
      </trkpt>
      <trkpt lat="49.90389" lon="2.3002">
        <ele>43.2</ele>
        <time>2024-05-11T12:37:48Z</time>
      </trkpt>
      <trkpt lat="49.90389" lon="2.30019">
        <ele>43.2</ele>
        <time>2024-05-11T12:37:49Z</time>
      </trkpt>
      <trkpt lat="49.90389" lon="2.30018">
        <ele>43.2</ele>
        <time>2024-05-11T12:37:50Z</time>
      </trkpt>
      <trkpt lat="49.90389" lon="2.30016">
        <ele>43.2</ele>
        <time>2024-05-11T12:37:51Z</time>
      </trkpt>
      <trkpt lat="49.90388" lon="2.30013">
        <ele>43.1</ele>
        <time>2024-05-11T12:37:52Z</time>
      </trkpt>
      <trkpt lat="49.90388" lon="2.30011">
        <ele>43.1</ele>
        <time>2024-05-11T12:37:53Z</time>
      </trkpt>
      <trkpt lat="49.90389" lon="2.3001">
        <ele>43.1</ele>
        <time>2024-05-11T12:37:54Z</time>
      </trkpt>
      <trkpt lat="49.90389" lon="2.30008">
        <ele>43.1</ele>
        <time>2024-05-11T12:37:55Z</time>
      </trkpt>
      <trkpt lat="49.9039" lon="2.30008">
        <ele>43.2</ele>
        <time>2024-05-11T12:37:56Z</time>
      </trkpt>
      <trkpt lat="49.90391" lon="2.30007">
        <ele>43.2</ele>
        <time>2024-05-11T12:37:57Z</time>
      </trkpt>
      <trkpt lat="49.90392" lon="2.30006">
        <ele>43.2</ele>
        <time>2024-05-11T12:37:58Z</time>
      </trkpt>
      <trkpt lat="49.90392" lon="2.30005">
        <ele>43.3</ele>
        <time>2024-05-11T12:37:59Z</time>
      </trkpt>
      <trkpt lat="49.90393" lon="2.30005">
        <ele>43.2</ele>
        <time>2024-05-11T12:38:00Z</time>
      </trkpt>
      <trkpt lat="49.90393" lon="2.30004">
        <ele>43.2</ele>
        <time>2024-05-11T12:38:01Z</time>
      </trkpt>
      <trkpt lat="49.90394" lon="2.30003">
        <ele>43.2</ele>
        <time>2024-05-11T12:38:02Z</time>
      </trkpt>
      <trkpt lat="49.90395" lon="2.30002">
        <ele>43.2</ele>
        <time>2024-05-11T12:38:03Z</time>
      </trkpt>
      <trkpt lat="49.90395" lon="2.30002">
        <ele>43.3</ele>
        <time>2024-05-11T12:38:04Z</time>
      </trkpt>
      <trkpt lat="49.90396" lon="2.30002">
        <ele>43.3</ele>
        <time>2024-05-11T12:38:05Z</time>
      </trkpt>
      <trkpt lat="49.90396" lon="2.30002">
        <ele>43.3</ele>
        <time>2024-05-11T12:38:06Z</time>
      </trkpt>
      <trkpt lat="49.90397" lon="2.30001">
        <ele>43.3</ele>
        <time>2024-05-11T12:38:07Z</time>
      </trkpt>
      <trkpt lat="49.90397" lon="2.30001">
        <ele>43.3</ele>
        <time>2024-05-11T12:38:08Z</time>
      </trkpt>
      <trkpt lat="49.90397" lon="2.3">
        <ele>43.2</ele>
        <time>2024-05-11T12:38:09Z</time>
      </trkpt>
      <trkpt lat="49.90397" lon="2.29999">
        <ele>43.2</ele>
        <time>2024-05-11T12:38:10Z</time>
      </trkpt>
      <trkpt lat="49.90397" lon="2.29999">
        <ele>43.2</ele>
        <time>2024-05-11T12:38:11Z</time>
      </trkpt>
      <trkpt lat="49.90396" lon="2.29998">
        <ele>43.2</ele>
        <time>2024-05-11T12:38:12Z</time>
      </trkpt>
      <trkpt lat="49.90396" lon="2.29997">
        <ele>43.2</ele>
        <time>2024-05-11T12:38:13Z</time>
      </trkpt>
      <trkpt lat="49.90396" lon="2.29997">
        <ele>43.2</ele>
        <time>2024-05-11T12:38:14Z</time>
      </trkpt>
      <trkpt lat="49.90396" lon="2.29997">
        <ele>43.2</ele>
        <time>2024-05-11T12:38:15Z</time>
      </trkpt>
      <trkpt lat="49.90396" lon="2.29997">
        <ele>43.2</ele>
        <time>2024-05-11T12:38:16Z</time>
      </trkpt>
      <trkpt lat="49.90396" lon="2.29997">
        <ele>43.2</ele>
        <time>2024-05-11T12:38:17Z</time>
      </trkpt>
      <trkpt lat="49.90396" lon="2.29996">
        <ele>43.2</ele>
        <time>2024-05-11T12:38:18Z</time>
      </trkpt>
      <trkpt lat="49.90396" lon="2.29996">
        <ele>43.1</ele>
        <time>2024-05-11T12:38:19Z</time>
      </trkpt>
      <trkpt lat="49.90396" lon="2.29996">
        <ele>43.1</ele>
        <time>2024-05-11T12:38:20Z</time>
      </trkpt>
      <trkpt lat="49.90396" lon="2.29996">
        <ele>43.1</ele>
        <time>2024-05-11T12:38:21Z</time>
      </trkpt>
      <trkpt lat="49.90395" lon="2.29996">
        <ele>43.1</ele>
        <time>2024-05-11T12:38:22Z</time>
      </trkpt>
      <trkpt lat="49.90394" lon="2.29995">
        <ele>43</ele>
        <time>2024-05-11T12:38:23Z</time>
      </trkpt>
      <trkpt lat="49.90393" lon="2.29993">
        <ele>43</ele>
        <time>2024-05-11T12:38:24Z</time>
      </trkpt>
      <trkpt lat="49.90392" lon="2.29992">
        <ele>42.8</ele>
        <time>2024-05-11T12:38:25Z</time>
      </trkpt>
      <trkpt lat="49.90391" lon="2.29991">
        <ele>42.8</ele>
        <time>2024-05-11T12:38:26Z</time>
      </trkpt>
      <trkpt lat="49.9039" lon="2.29986">
        <ele>42.7</ele>
        <time>2024-05-11T12:38:27Z</time>
      </trkpt>
      <trkpt lat="49.9039" lon="2.29984">
        <ele>42.7</ele>
        <time>2024-05-11T12:38:28Z</time>
      </trkpt>
      <trkpt lat="49.90389" lon="2.29977">
        <ele>42.4</ele>
        <time>2024-05-11T12:38:29Z</time>
      </trkpt>
      <trkpt lat="49.90388" lon="2.29972">
        <ele>42.3</ele>
        <time>2024-05-11T12:38:30Z</time>
      </trkpt>
      <trkpt lat="49.90387" lon="2.2997">
        <ele>42</ele>
        <time>2024-05-11T12:38:31Z</time>
      </trkpt>
      <trkpt lat="49.90386" lon="2.2997">
        <ele>42</ele>
        <time>2024-05-11T12:38:32Z</time>
      </trkpt>
      <trkpt lat="49.90385" lon="2.2997">
        <ele>42</ele>
        <time>2024-05-11T12:38:33Z</time>
      </trkpt>
      <trkpt lat="49.90385" lon="2.2997">
        <ele>42</ele>
        <time>2024-05-11T12:38:34Z</time>
      </trkpt>
      <trkpt lat="49.90385" lon="2.2997">
        <ele>42</ele>
        <time>2024-05-11T12:38:35Z</time>
      </trkpt>
      <trkpt lat="49.90384" lon="2.2997">
        <ele>42</ele>
        <time>2024-05-11T12:38:36Z</time>
      </trkpt>
      <trkpt lat="49.90384" lon="2.2997">
        <ele>41.9</ele>
        <time>2024-05-11T12:38:37Z</time>
      </trkpt>
      <trkpt lat="49.90383" lon="2.2997">
        <ele>41.9</ele>
        <time>2024-05-11T12:38:38Z</time>
      </trkpt>
      <trkpt lat="49.90383" lon="2.2997">
        <ele>41.9</ele>
        <time>2024-05-11T12:38:39Z</time>
      </trkpt>
      <trkpt lat="49.90383" lon="2.2997">
        <ele>41.9</ele>
        <time>2024-05-11T12:38:40Z</time>
      </trkpt>
      <trkpt lat="49.90383" lon="2.29971">
        <ele>42</ele>
        <time>2024-05-11T12:38:41Z</time>
      </trkpt>
      <trkpt lat="49.90383" lon="2.29971">
        <ele>42</ele>
        <time>2024-05-11T12:38:42Z</time>
      </trkpt>
      <trkpt lat="49.90382" lon="2.29971">
        <ele>42</ele>
        <time>2024-05-11T12:38:43Z</time>
      </trkpt>
      <trkpt lat="49.90382" lon="2.29971">
        <ele>42</ele>
        <time>2024-05-11T12:38:44Z</time>
      </trkpt>
      <trkpt lat="49.90382" lon="2.29972">
        <ele>42</ele>
        <time>2024-05-11T12:38:45Z</time>
      </trkpt>
      <trkpt lat="49.90382" lon="2.29972">
        <ele>42</ele>
        <time>2024-05-11T12:38:46Z</time>
      </trkpt>
      <trkpt lat="49.90382" lon="2.29971">
        <ele>42</ele>
        <time>2024-05-11T12:38:50Z</time>
      </trkpt>
      <trkpt lat="49.90578" lon="2.29779">
        <ele>44.1</ele>
        <time>2024-05-11T13:25:16Z</time>
      </trkpt>
      <trkpt lat="49.90525" lon="2.29744">
        <ele>45.5</ele>
        <time>2024-05-11T13:25:17Z</time>
      </trkpt>
      <trkpt lat="49.90521" lon="2.29741">
        <ele>45.6</ele>
        <time>2024-05-11T13:25:18Z</time>
      </trkpt>
      <trkpt lat="49.90516" lon="2.29738">
        <ele>45.9</ele>
        <time>2024-05-11T13:25:19Z</time>
      </trkpt>
      <trkpt lat="49.90512" lon="2.29737">
        <ele>46</ele>
        <time>2024-05-11T13:25:20Z</time>
      </trkpt>
      <trkpt lat="49.90511" lon="2.29737">
        <ele>46.2</ele>
        <time>2024-05-11T13:25:21Z</time>
      </trkpt>
      <trkpt lat="49.90508" lon="2.29736">
        <ele>46.3</ele>
        <time>2024-05-11T13:25:22Z</time>
      </trkpt>
      <trkpt lat="49.90507" lon="2.29736">
        <ele>46.3</ele>
        <time>2024-05-11T13:25:23Z</time>
      </trkpt>
      <trkpt lat="49.90506" lon="2.29735">
        <ele>46.3</ele>
        <time>2024-05-11T13:25:24Z</time>
      </trkpt>
      <trkpt lat="49.90505" lon="2.29735">
        <ele>46.4</ele>
        <time>2024-05-11T13:25:25Z</time>
      </trkpt>
      <trkpt lat="49.90505" lon="2.29734">
        <ele>46.4</ele>
        <time>2024-05-11T13:25:26Z</time>
      </trkpt>
      <trkpt lat="49.90504" lon="2.29735">
        <ele>46.4</ele>
        <time>2024-05-11T13:25:27Z</time>
      </trkpt>
      <trkpt lat="49.90504" lon="2.29735">
        <ele>46.4</ele>
        <time>2024-05-11T13:25:28Z</time>
      </trkpt>
      <trkpt lat="49.90504" lon="2.29735">
        <ele>46.4</ele>
        <time>2024-05-11T13:25:29Z</time>
      </trkpt>
      <trkpt lat="49.90503" lon="2.29734">
        <ele>46.4</ele>
        <time>2024-05-11T13:25:30Z</time>
      </trkpt>
      <trkpt lat="49.90503" lon="2.29733">
        <ele>46.5</ele>
        <time>2024-05-11T13:25:31Z</time>
      </trkpt>
      <trkpt lat="49.90502" lon="2.29732">
        <ele>46.5</ele>
        <time>2024-05-11T13:25:32Z</time>
      </trkpt>
      <trkpt lat="49.90498" lon="2.29728">
        <ele>46.6</ele>
        <time>2024-05-11T13:29:34Z</time>
      </trkpt>
      <trkpt lat="49.90445" lon="2.29847">
        <ele>45.4</ele>
        <time>2024-05-11T13:29:53Z</time>
      </trkpt>
      <trkpt lat="49.90444" lon="2.29849">
        <ele>45.5</ele>
        <time>2024-05-11T13:29:55Z</time>
      </trkpt>
      <trkpt lat="49.90444" lon="2.29851">
        <ele>45.5</ele>
        <time>2024-05-11T13:29:56Z</time>
      </trkpt>
      <trkpt lat="49.90444" lon="2.29853">
        <ele>45.6</ele>
        <time>2024-05-11T13:29:58Z</time>
      </trkpt>
      <trkpt lat="49.90444" lon="2.29855">
        <ele>45.7</ele>
        <time>2024-05-11T13:29:59Z</time>
      </trkpt>
      <trkpt lat="49.90444" lon="2.29855">
        <ele>45.7</ele>
        <time>2024-05-11T13:30:00Z</time>
      </trkpt>
      <trkpt lat="49.90444" lon="2.29855">
        <ele>45.8</ele>
        <time>2024-05-11T13:30:01Z</time>
      </trkpt>
      <trkpt lat="49.90444" lon="2.29855">
        <ele>45.8</ele>
        <time>2024-05-11T13:30:02Z</time>
      </trkpt>
      <trkpt lat="49.90444" lon="2.29855">
        <ele>45.8</ele>
        <time>2024-05-11T13:30:03Z</time>
      </trkpt>
      <trkpt lat="49.90444" lon="2.29855">
        <ele>45.8</ele>
        <time>2024-05-11T13:30:04Z</time>
      </trkpt>
      <trkpt lat="49.90444" lon="2.29855">
        <ele>45.8</ele>
        <time>2024-05-11T13:30:05Z</time>
      </trkpt>
      <trkpt lat="49.90444" lon="2.29855">
        <ele>45.8</ele>
        <time>2024-05-11T13:30:06Z</time>
      </trkpt>
      <trkpt lat="49.90444" lon="2.29855">
        <ele>45.8</ele>
        <time>2024-05-11T13:30:08Z</time>
      </trkpt>
      <trkpt lat="49.90444" lon="2.29855">
        <ele>45.8</ele>
        <time>2024-05-11T13:30:09Z</time>
      </trkpt>
      <trkpt lat="49.90444" lon="2.29855">
        <ele>45.8</ele>
        <time>2024-05-11T13:30:10Z</time>
      </trkpt>
      <trkpt lat="49.90444" lon="2.29855">
        <ele>45.8</ele>
        <time>2024-05-11T13:30:11Z</time>
      </trkpt>
      <trkpt lat="49.90444" lon="2.29855">
        <ele>45.8</ele>
        <time>2024-05-11T13:30:12Z</time>
      </trkpt>
      <trkpt lat="49.90444" lon="2.29855">
        <ele>45.8</ele>
        <time>2024-05-11T13:30:13Z</time>
      </trkpt>
      <trkpt lat="49.90443" lon="2.29854">
        <ele>45.8</ele>
        <time>2024-05-11T13:30:14Z</time>
      </trkpt>
      <trkpt lat="49.90443" lon="2.29854">
        <ele>45.9</ele>
        <time>2024-05-11T13:30:15Z</time>
      </trkpt>
      <trkpt lat="49.90442" lon="2.29854">
        <ele>45.9</ele>
        <time>2024-05-11T13:30:16Z</time>
      </trkpt>
      <trkpt lat="49.90442" lon="2.29854">
        <ele>45.9</ele>
        <time>2024-05-11T13:30:17Z</time>
      </trkpt>
      <trkpt lat="49.90441" lon="2.29854">
        <ele>46</ele>
        <time>2024-05-11T13:30:18Z</time>
      </trkpt>
      <trkpt lat="49.90441" lon="2.29854">
        <ele>46</ele>
        <time>2024-05-11T13:30:19Z</time>
      </trkpt>
      <trkpt lat="49.90441" lon="2.29854">
        <ele>46</ele>
        <time>2024-05-11T13:30:20Z</time>
      </trkpt>
      <trkpt lat="49.9044" lon="2.29854">
        <ele>46.1</ele>
        <time>2024-05-11T13:30:21Z</time>
      </trkpt>
      <trkpt lat="49.9044" lon="2.29854">
        <ele>46.1</ele>
        <time>2024-05-11T13:30:22Z</time>
      </trkpt>
      <trkpt lat="49.9044" lon="2.29854">
        <ele>46.1</ele>
        <time>2024-05-11T13:30:23Z</time>
      </trkpt>
      <trkpt lat="49.9044" lon="2.29854">
        <ele>46.1</ele>
        <time>2024-05-11T13:30:24Z</time>
      </trkpt>
      <trkpt lat="49.9044" lon="2.29854">
        <ele>46.1</ele>
        <time>2024-05-11T13:30:25Z</time>
      </trkpt>
      <trkpt lat="49.9044" lon="2.29854">
        <ele>46.1</ele>
        <time>2024-05-11T13:30:26Z</time>
      </trkpt>
      <trkpt lat="49.9044" lon="2.29854">
        <ele>46.1</ele>
        <time>2024-05-11T13:30:27Z</time>
      </trkpt>
      <trkpt lat="49.9044" lon="2.29855">
        <ele>46.1</ele>
        <time>2024-05-11T13:30:28Z</time>
      </trkpt>
      <trkpt lat="49.9044" lon="2.29855">
        <ele>46.1</ele>
        <time>2024-05-11T13:30:29Z</time>
      </trkpt>
      <trkpt lat="49.9044" lon="2.29855">
        <ele>46.1</ele>
        <time>2024-05-11T13:30:30Z</time>
      </trkpt>
      <trkpt lat="49.9044" lon="2.29855">
        <ele>46.1</ele>
        <time>2024-05-11T13:30:31Z</time>
      </trkpt>
      <trkpt lat="49.9044" lon="2.29855">
        <ele>46.1</ele>
        <time>2024-05-11T13:30:32Z</time>
      </trkpt>
      <trkpt lat="49.9044" lon="2.29855">
        <ele>46.1</ele>
        <time>2024-05-11T13:30:33Z</time>
      </trkpt>
      <trkpt lat="49.9044" lon="2.29855">
        <ele>46.1</ele>
        <time>2024-05-11T13:30:34Z</time>
      </trkpt>
      <trkpt lat="49.9044" lon="2.29855">
        <ele>46.1</ele>
        <time>2024-05-11T13:30:35Z</time>
      </trkpt>
      <trkpt lat="49.9044" lon="2.29855">
        <ele>46.1</ele>
        <time>2024-05-11T13:30:36Z</time>
      </trkpt>
      <trkpt lat="49.9044" lon="2.29855">
        <ele>46.1</ele>
        <time>2024-05-11T13:30:37Z</time>
      </trkpt>
      <trkpt lat="49.9044" lon="2.29855">
        <ele>46.1</ele>
        <time>2024-05-11T13:30:38Z</time>
      </trkpt>
      <trkpt lat="49.9044" lon="2.29855">
        <ele>46.1</ele>
        <time>2024-05-11T13:30:39Z</time>
      </trkpt>
      <trkpt lat="49.9044" lon="2.29855">
        <ele>46.2</ele>
        <time>2024-05-11T13:30:40Z</time>
      </trkpt>
      <trkpt lat="49.9044" lon="2.29855">
        <ele>46.2</ele>
        <time>2024-05-11T13:30:41Z</time>
      </trkpt>
      <trkpt lat="49.9044" lon="2.29855">
        <ele>46.2</ele>
        <time>2024-05-11T13:30:42Z</time>
      </trkpt>
      <trkpt lat="49.90439" lon="2.29855">
        <ele>46.2</ele>
        <time>2024-05-11T13:30:44Z</time>
      </trkpt>
      <trkpt lat="49.90439" lon="2.29855">
        <ele>46.2</ele>
        <time>2024-05-11T13:30:45Z</time>
      </trkpt>
      <trkpt lat="49.90439" lon="2.29855">
        <ele>46.2</ele>
        <time>2024-05-11T13:30:46Z</time>
      </trkpt>
      <trkpt lat="49.90439" lon="2.29855">
        <ele>46.2</ele>
        <time>2024-05-11T13:30:47Z</time>
      </trkpt>
      <trkpt lat="49.90439" lon="2.29855">
        <ele>46.2</ele>
        <time>2024-05-11T13:30:48Z</time>
      </trkpt>
      <trkpt lat="49.90439" lon="2.29855">
        <ele>46.2</ele>
        <time>2024-05-11T13:30:49Z</time>
      </trkpt>
      <trkpt lat="49.90439" lon="2.29855">
        <ele>46.2</ele>
        <time>2024-05-11T13:30:50Z</time>
      </trkpt>
      <trkpt lat="49.90439" lon="2.29855">
        <ele>46.2</ele>
        <time>2024-05-11T13:30:51Z</time>
      </trkpt>
      <trkpt lat="49.90439" lon="2.29855">
        <ele>46.2</ele>
        <time>2024-05-11T13:30:52Z</time>
      </trkpt>
      <trkpt lat="49.90439" lon="2.29855">
        <ele>46.2</ele>
        <time>2024-05-11T13:30:53Z</time>
      </trkpt>
      <trkpt lat="49.90439" lon="2.29855">
        <ele>46.2</ele>
        <time>2024-05-11T13:30:54Z</time>
      </trkpt>
      <trkpt lat="49.90439" lon="2.29855">
        <ele>46.2</ele>
        <time>2024-05-11T13:30:56Z</time>
      </trkpt>
      <trkpt lat="49.90439" lon="2.29855">
        <ele>46.2</ele>
        <time>2024-05-11T13:30:57Z</time>
      </trkpt>
      <trkpt lat="49.90439" lon="2.29855">
        <ele>46.2</ele>
        <time>2024-05-11T13:30:58Z</time>
      </trkpt>
      <trkpt lat="49.90439" lon="2.29855">
        <ele>46.2</ele>
        <time>2024-05-11T13:30:59Z</time>
      </trkpt>
      <trkpt lat="49.90439" lon="2.29855">
        <ele>46.2</ele>
        <time>2024-05-11T13:31:00Z</time>
      </trkpt>
      <trkpt lat="49.90439" lon="2.29855">
        <ele>46.2</ele>
        <time>2024-05-11T13:31:01Z</time>
      </trkpt>
      <trkpt lat="49.90439" lon="2.29855">
        <ele>46.2</ele>
        <time>2024-05-11T13:31:02Z</time>
      </trkpt>
      <trkpt lat="49.90439" lon="2.29855">
        <ele>46.2</ele>
        <time>2024-05-11T13:31:03Z</time>
      </trkpt>
      <trkpt lat="49.90439" lon="2.29855">
        <ele>46.2</ele>
        <time>2024-05-11T13:31:04Z</time>
      </trkpt>
      <trkpt lat="49.90439" lon="2.29855">
        <ele>46.2</ele>
        <time>2024-05-11T13:31:05Z</time>
      </trkpt>
      <trkpt lat="49.90439" lon="2.29855">
        <ele>46.2</ele>
        <time>2024-05-11T13:31:06Z</time>
      </trkpt>
      <trkpt lat="49.90439" lon="2.29855">
        <ele>46.2</ele>
        <time>2024-05-11T13:31:07Z</time>
      </trkpt>
      <trkpt lat="49.90439" lon="2.29855">
        <ele>46.2</ele>
        <time>2024-05-11T13:31:08Z</time>
      </trkpt>
      <trkpt lat="49.90439" lon="2.29855">
        <ele>46.2</ele>
        <time>2024-05-11T13:31:09Z</time>
      </trkpt>
      <trkpt lat="49.90439" lon="2.29855">
        <ele>46.2</ele>
        <time>2024-05-11T13:31:10Z</time>
      </trkpt>
      <trkpt lat="49.90439" lon="2.29855">
        <ele>46.2</ele>
        <time>2024-05-11T13:31:11Z</time>
      </trkpt>
      <trkpt lat="49.90439" lon="2.29855">
        <ele>46.2</ele>
        <time>2024-05-11T13:31:12Z</time>
      </trkpt>
      <trkpt lat="49.9044" lon="2.29855">
        <ele>46.2</ele>
        <time>2024-05-11T13:31:13Z</time>
      </trkpt>
      <trkpt lat="49.9044" lon="2.29855">
        <ele>46.2</ele>
        <time>2024-05-11T13:31:14Z</time>
      </trkpt>
      <trkpt lat="49.9044" lon="2.29855">
        <ele>46.2</ele>
        <time>2024-05-11T13:31:15Z</time>
      </trkpt>
      <trkpt lat="49.9044" lon="2.29855">
        <ele>46.2</ele>
        <time>2024-05-11T13:31:16Z</time>
      </trkpt>
      <trkpt lat="49.9044" lon="2.29855">
        <ele>46.2</ele>
        <time>2024-05-11T13:31:17Z</time>
      </trkpt>
      <trkpt lat="49.9044" lon="2.29855">
        <ele>46.2</ele>
        <time>2024-05-11T13:31:18Z</time>
      </trkpt>
      <trkpt lat="49.90439" lon="2.29855">
        <ele>46.2</ele>
        <time>2024-05-11T13:31:19Z</time>
      </trkpt>
      <trkpt lat="49.90439" lon="2.29855">
        <ele>46.2</ele>
        <time>2024-05-11T13:31:20Z</time>
      </trkpt>
      <trkpt lat="49.90439" lon="2.29855">
        <ele>46.2</ele>
        <time>2024-05-11T13:31:21Z</time>
      </trkpt>
      <trkpt lat="49.90439" lon="2.29855">
        <ele>46.3</ele>
        <time>2024-05-11T13:31:22Z</time>
      </trkpt>
      <trkpt lat="49.90439" lon="2.29855">
        <ele>46.3</ele>
        <time>2024-05-11T13:31:23Z</time>
      </trkpt>
      <trkpt lat="49.90439" lon="2.29855">
        <ele>46.3</ele>
        <time>2024-05-11T13:31:24Z</time>
      </trkpt>
      <trkpt lat="49.90439" lon="2.29855">
        <ele>46.3</ele>
        <time>2024-05-11T13:31:25Z</time>
      </trkpt>
      <trkpt lat="49.90439" lon="2.29855">
        <ele>46.3</ele>
        <time>2024-05-11T13:31:26Z</time>
      </trkpt>
      <trkpt lat="49.90439" lon="2.29855">
        <ele>46.3</ele>
        <time>2024-05-11T13:31:27Z</time>
      </trkpt>
      <trkpt lat="49.90439" lon="2.29855">
        <ele>46.3</ele>
        <time>2024-05-11T13:31:28Z</time>
      </trkpt>
      <trkpt lat="49.90439" lon="2.29855">
        <ele>46.3</ele>
        <time>2024-05-11T13:31:29Z</time>
      </trkpt>
      <trkpt lat="49.90439" lon="2.29856">
        <ele>46.3</ele>
        <time>2024-05-11T13:31:30Z</time>
      </trkpt>
      <trkpt lat="49.9044" lon="2.29856">
        <ele>46.3</ele>
        <time>2024-05-11T13:31:31Z</time>
      </trkpt>
      <trkpt lat="49.9044" lon="2.29856">
        <ele>46.3</ele>
        <time>2024-05-11T13:31:32Z</time>
      </trkpt>
      <trkpt lat="49.9044" lon="2.29857">
        <ele>46.4</ele>
        <time>2024-05-11T13:31:33Z</time>
      </trkpt>
      <trkpt lat="49.9044" lon="2.29857">
        <ele>46.4</ele>
        <time>2024-05-11T13:31:34Z</time>
      </trkpt>
      <trkpt lat="49.9044" lon="2.29857">
        <ele>46.4</ele>
        <time>2024-05-11T13:31:35Z</time>
      </trkpt>
      <trkpt lat="49.9044" lon="2.29859">
        <ele>46.5</ele>
        <time>2024-05-11T13:31:36Z</time>
      </trkpt>
      <trkpt lat="49.90441" lon="2.2986">
        <ele>46.5</ele>
        <time>2024-05-11T13:31:37Z</time>
      </trkpt>
      <trkpt lat="49.90441" lon="2.29861">
        <ele>46.6</ele>
        <time>2024-05-11T13:31:38Z</time>
      </trkpt>
      <trkpt lat="49.90441" lon="2.29862">
        <ele>46.6</ele>
        <time>2024-05-11T13:31:39Z</time>
      </trkpt>
      <trkpt lat="49.90442" lon="2.29862">
        <ele>46.7</ele>
        <time>2024-05-11T13:31:40Z</time>
      </trkpt>
      <trkpt lat="49.90442" lon="2.29863">
        <ele>46.7</ele>
        <time>2024-05-11T13:31:41Z</time>
      </trkpt>
      <trkpt lat="49.90443" lon="2.29863">
        <ele>46.8</ele>
        <time>2024-05-11T13:31:42Z</time>
      </trkpt>
      <trkpt lat="49.90443" lon="2.29864">
        <ele>46.8</ele>
        <time>2024-05-11T13:31:43Z</time>
      </trkpt>
      <trkpt lat="49.90443" lon="2.29865">
        <ele>46.9</ele>
        <time>2024-05-11T13:31:44Z</time>
      </trkpt>
      <trkpt lat="49.90444" lon="2.29866">
        <ele>46.9</ele>
        <time>2024-05-11T13:31:45Z</time>
      </trkpt>
      <trkpt lat="49.90444" lon="2.29867">
        <ele>47</ele>
        <time>2024-05-11T13:31:46Z</time>
      </trkpt>
      <trkpt lat="49.90444" lon="2.29868">
        <ele>47</ele>
        <time>2024-05-11T13:31:47Z</time>
      </trkpt>
      <trkpt lat="49.90444" lon="2.29869">
        <ele>47.1</ele>
        <time>2024-05-11T13:31:48Z</time>
      </trkpt>
      <trkpt lat="49.90444" lon="2.2987">
        <ele>47.1</ele>
        <time>2024-05-11T13:31:49Z</time>
      </trkpt>
      <trkpt lat="49.90444" lon="2.29871">
        <ele>47.2</ele>
        <time>2024-05-11T13:31:50Z</time>
      </trkpt>
      <trkpt lat="49.90444" lon="2.29872">
        <ele>47.2</ele>
        <time>2024-05-11T13:31:51Z</time>
      </trkpt>
      <trkpt lat="49.90444" lon="2.29873">
        <ele>47.3</ele>
        <time>2024-05-11T13:31:52Z</time>
      </trkpt>
      <trkpt lat="49.90444" lon="2.29874">
        <ele>47.3</ele>
        <time>2024-05-11T13:31:53Z</time>
      </trkpt>
      <trkpt lat="49.90444" lon="2.29876">
        <ele>47.4</ele>
        <time>2024-05-11T13:31:54Z</time>
      </trkpt>
      <trkpt lat="49.90444" lon="2.29877">
        <ele>47.4</ele>
        <time>2024-05-11T13:31:55Z</time>
      </trkpt>
      <trkpt lat="49.90444" lon="2.29878">
        <ele>47.5</ele>
        <time>2024-05-11T13:31:56Z</time>
      </trkpt>
      <trkpt lat="49.90444" lon="2.2988">
        <ele>47.6</ele>
        <time>2024-05-11T13:31:57Z</time>
      </trkpt>
      <trkpt lat="49.90443" lon="2.29881">
        <ele>47.6</ele>
        <time>2024-05-11T13:31:58Z</time>
      </trkpt>
      <trkpt lat="49.90443" lon="2.29882">
        <ele>47.7</ele>
        <time>2024-05-11T13:31:59Z</time>
      </trkpt>
      <trkpt lat="49.90443" lon="2.29884">
        <ele>47.8</ele>
        <time>2024-05-11T13:32:00Z</time>
      </trkpt>
      <trkpt lat="49.90443" lon="2.29885">
        <ele>47.8</ele>
        <time>2024-05-11T13:32:01Z</time>
      </trkpt>
      <trkpt lat="49.90443" lon="2.29886">
        <ele>47.9</ele>
        <time>2024-05-11T13:32:02Z</time>
      </trkpt>
      <trkpt lat="49.90443" lon="2.29888">
        <ele>48</ele>
        <time>2024-05-11T13:32:03Z</time>
      </trkpt>
      <trkpt lat="49.90443" lon="2.29889">
        <ele>48</ele>
        <time>2024-05-11T13:32:04Z</time>
      </trkpt>
      <trkpt lat="49.90443" lon="2.29891">
        <ele>48.1</ele>
        <time>2024-05-11T13:32:05Z</time>
      </trkpt>
      <trkpt lat="49.90443" lon="2.29892">
        <ele>48.2</ele>
        <time>2024-05-11T13:32:06Z</time>
      </trkpt>
      <trkpt lat="49.90443" lon="2.29893">
        <ele>48.2</ele>
        <time>2024-05-11T13:32:07Z</time>
      </trkpt>
      <trkpt lat="49.90443" lon="2.29895">
        <ele>48.3</ele>
        <time>2024-05-11T13:32:08Z</time>
      </trkpt>
      <trkpt lat="49.90443" lon="2.29897">
        <ele>48.4</ele>
        <time>2024-05-11T13:32:09Z</time>
      </trkpt>
      <trkpt lat="49.90443" lon="2.29899">
        <ele>48.5</ele>
        <time>2024-05-11T13:32:10Z</time>
      </trkpt>
      <trkpt lat="49.90443" lon="2.29901">
        <ele>48.5</ele>
        <time>2024-05-11T13:32:11Z</time>
      </trkpt>
      <trkpt lat="49.90443" lon="2.29902">
        <ele>48.6</ele>
        <time>2024-05-11T13:32:12Z</time>
      </trkpt>
      <trkpt lat="49.90442" lon="2.29904">
        <ele>48.7</ele>
        <time>2024-05-11T13:32:13Z</time>
      </trkpt>
      <trkpt lat="49.90442" lon="2.29905">
        <ele>48.8</ele>
        <time>2024-05-11T13:32:14Z</time>
      </trkpt>
      <trkpt lat="49.90442" lon="2.29907">
        <ele>48.8</ele>
        <time>2024-05-11T13:32:15Z</time>
      </trkpt>
      <trkpt lat="49.90442" lon="2.29909">
        <ele>48.9</ele>
        <time>2024-05-11T13:32:16Z</time>
      </trkpt>
      <trkpt lat="49.90442" lon="2.29911">
        <ele>49</ele>
        <time>2024-05-11T13:32:17Z</time>
      </trkpt>
      <trkpt lat="49.90443" lon="2.29912">
        <ele>49.1</ele>
        <time>2024-05-11T13:32:18Z</time>
      </trkpt>
      <trkpt lat="49.90444" lon="2.29913">
        <ele>49.2</ele>
        <time>2024-05-11T13:32:19Z</time>
      </trkpt>
      <trkpt lat="49.90445" lon="2.29915">
        <ele>49.3</ele>
        <time>2024-05-11T13:32:20Z</time>
      </trkpt>
      <trkpt lat="49.90445" lon="2.29916">
        <ele>49.3</ele>
        <time>2024-05-11T13:32:21Z</time>
      </trkpt>
      <trkpt lat="49.90445" lon="2.29918">
        <ele>49.4</ele>
        <time>2024-05-11T13:32:22Z</time>
      </trkpt>
      <trkpt lat="49.90446" lon="2.29919">
        <ele>49.5</ele>
        <time>2024-05-11T13:32:23Z</time>
      </trkpt>
      <trkpt lat="49.90446" lon="2.2992">
        <ele>49.5</ele>
        <time>2024-05-11T13:32:24Z</time>
      </trkpt>
      <trkpt lat="49.90447" lon="2.29921">
        <ele>49.6</ele>
        <time>2024-05-11T13:32:25Z</time>
      </trkpt>
      <trkpt lat="49.90447" lon="2.29922">
        <ele>49.6</ele>
        <time>2024-05-11T13:32:26Z</time>
      </trkpt>
      <trkpt lat="49.90447" lon="2.29923">
        <ele>49.7</ele>
        <time>2024-05-11T13:32:27Z</time>
      </trkpt>
      <trkpt lat="49.90448" lon="2.29923">
        <ele>49.7</ele>
        <time>2024-05-11T13:32:28Z</time>
      </trkpt>
      <trkpt lat="49.90448" lon="2.29924">
        <ele>49.8</ele>
        <time>2024-05-11T13:32:29Z</time>
      </trkpt>
      <trkpt lat="49.90449" lon="2.29925">
        <ele>49.8</ele>
        <time>2024-05-11T13:32:30Z</time>
      </trkpt>
      <trkpt lat="49.90449" lon="2.29926">
        <ele>49.8</ele>
        <time>2024-05-11T13:32:31Z</time>
      </trkpt>
      <trkpt lat="49.90449" lon="2.29927">
        <ele>49.9</ele>
        <time>2024-05-11T13:32:32Z</time>
      </trkpt>
      <trkpt lat="49.90449" lon="2.29928">
        <ele>49.9</ele>
        <time>2024-05-11T13:32:33Z</time>
      </trkpt>
      <trkpt lat="49.90449" lon="2.29929">
        <ele>50</ele>
        <time>2024-05-11T13:32:34Z</time>
      </trkpt>
      <trkpt lat="49.90449" lon="2.2993">
        <ele>50</ele>
        <time>2024-05-11T13:32:35Z</time>
      </trkpt>
      <trkpt lat="49.90449" lon="2.29931">
        <ele>50.1</ele>
        <time>2024-05-11T13:32:36Z</time>
      </trkpt>
      <trkpt lat="49.90449" lon="2.29933">
        <ele>50.2</ele>
        <time>2024-05-11T13:32:38Z</time>
      </trkpt>
      <trkpt lat="49.90449" lon="2.29934">
        <ele>50.3</ele>
        <time>2024-05-11T13:32:39Z</time>
      </trkpt>
      <trkpt lat="49.90449" lon="2.29936">
        <ele>50.3</ele>
        <time>2024-05-11T13:32:40Z</time>
      </trkpt>
      <trkpt lat="49.90449" lon="2.29938">
        <ele>50.4</ele>
        <time>2024-05-11T13:32:41Z</time>
      </trkpt>
      <trkpt lat="49.90449" lon="2.29939">
        <ele>50.5</ele>
        <time>2024-05-11T13:32:43Z</time>
      </trkpt>
      <trkpt lat="49.90449" lon="2.2994">
        <ele>50.6</ele>
        <time>2024-05-11T13:32:44Z</time>
      </trkpt>
      <trkpt lat="49.90449" lon="2.29942">
        <ele>50.6</ele>
        <time>2024-05-11T13:32:45Z</time>
      </trkpt>
      <trkpt lat="49.90448" lon="2.29943">
        <ele>50.7</ele>
        <time>2024-05-11T13:32:46Z</time>
      </trkpt>
      <trkpt lat="49.90448" lon="2.29945">
        <ele>50.8</ele>
        <time>2024-05-11T14:07:53Z</time>
      </trkpt>
      <trkpt lat="49.90471" lon="2.29405">
        <ele>38.7</ele>
        <time>2024-05-11T14:08:08Z</time>
      </trkpt>
      <trkpt lat="49.9047" lon="2.29407">
        <ele>38.7</ele>
        <time>2024-05-11T14:08:09Z</time>
      </trkpt>
      <trkpt lat="49.90473" lon="2.29404">
        <ele>38.8</ele>
        <time>2024-05-11T14:08:10Z</time>
      </trkpt>
      <trkpt lat="49.90474" lon="2.29385">
        <ele>39.2</ele>
        <time>2024-05-11T14:08:12Z</time>
      </trkpt>
      <trkpt lat="49.90476" lon="2.29385">
        <ele>39.3</ele>
        <time>2024-05-11T14:08:13Z</time>
      </trkpt>
      <trkpt lat="49.90477" lon="2.29385">
        <ele>39.3</ele>
        <time>2024-05-11T14:08:14Z</time>
      </trkpt>
      <trkpt lat="49.90479" lon="2.29384">
        <ele>39.4</ele>
        <time>2024-05-11T14:08:15Z</time>
      </trkpt>
      <trkpt lat="49.9048" lon="2.29383">
        <ele>39.4</ele>
        <time>2024-05-11T14:08:16Z</time>
      </trkpt>
      <trkpt lat="49.90481" lon="2.29383">
        <ele>39.4</ele>
        <time>2024-05-11T14:08:17Z</time>
      </trkpt>
      <trkpt lat="49.90481" lon="2.29383">
        <ele>39.4</ele>
        <time>2024-05-11T14:08:18Z</time>
      </trkpt>
      <trkpt lat="49.90481" lon="2.29383">
        <ele>39.4</ele>
        <time>2024-05-11T14:08:19Z</time>
      </trkpt>
    </trkseg>
  </trk>
</gpx>